sensor_id;sensor_type;location;lat;lon;timestamp;pressure;altitude;pressure_sealevel;temperature;humidity
39613;BME280;25303;48.896;13.342;2024-03-23T00:54:31;92242.56;;;10.55;62.08
39613;BME280;25303;48.896;13.342;2024-03-23T01:04:33;92231.56;;;10.61;61.94
39613;BME280;25303;48.896;13.342;2024-03-23T01:14:36;92216.81;;;10.55;61.97
39613;BME280;25303;48.896;13.342;2024-03-23T01:24:38;92205.44;;;10.49;62.16
39613;BME280;25303;48.896;13.342;2024-03-23T01:34:42;92201.38;;;10.55;61.86
39613;BME280;25303;48.896;13.342;2024-03-23T01:44:44;92197.28;;;10.37;61.92
39613;BME280;25303;48.896;13.342;2024-03-23T01:54:47;92194.16;;;9.95;62.87
39613;BME280;25303;48.896;13.342;2024-03-23T02:04:49;92170.75;;;9.50;65.34
39613;BME280;25303;48.896;13.342;2024-03-23T02:14:53;92162.06;;;9.11;67.14
39613;BME280;25303;48.896;13.342;2024-03-23T02:24:56;92147.81;;;9.01;67.14
39613;BME280;25303;48.896;13.342;2024-03-23T02:34:58;92133.59;;;8.65;69.17
39613;BME280;25303;48.896;13.342;2024-03-23T02:45:02;92119.50;;;8.28;71.59
39613;BME280;25303;48.896;13.342;2024-03-23T02:55:05;92095.94;;;8.08;73.83
39613;BME280;25303;48.896;13.342;2024-03-23T03:05:09;92083.59;;;7.78;75.66
39613;BME280;25303;48.896;13.342;2024-03-23T03:15:12;92077.78;;;7.59;76.42
39613;BME280;25303;48.896;13.342;2024-03-23T03:25:16;92070.00;;;7.94;73.98
39613;BME280;25303;48.896;13.342;2024-03-23T03:35:18;92074.91;;;7.71;75.66
39613;BME280;25303;48.896;13.342;2024-03-23T03:45:21;92067.56;;;7.76;74.72
39613;BME280;25303;48.896;13.342;2024-03-23T03:55:23;92047.38;;;7.65;76.40
39613;BME280;25303;48.896;13.342;2024-03-23T04:05:27;92053.81;;;7.94;74.49
39613;BME280;25303;48.896;13.342;2024-03-23T04:15:29;92032.81;;;7.90;74.67
39613;BME280;25303;48.896;13.342;2024-03-23T04:25:32;92024.34;;;7.81;74.58
39613;BME280;25303;48.896;13.342;2024-03-23T04:35:34;92017.56;;;7.39;77.08
39613;BME280;25303;48.896;13.342;2024-03-23T04:45:38;92014.41;;;7.62;76.58
39613;BME280;25303;48.896;13.342;2024-03-23T04:55:40;91986.13;;;6.95;80.31
39613;BME280;25303;48.896;13.342;2024-03-23T05:05:44;91978.34;;;7.22;77.32
39613;BME280;25303;48.896;13.342;2024-03-23T05:15:51;91950.22;;;7.38;76.94
39613;BME280;25303;48.896;13.342;2024-03-23T05:25:55;91949.38;;;7.54;77.61
39613;BME280;25303;48.896;13.342;2024-03-23T05:35:58;91977.88;;;7.93;76.03
39613;BME280;25303;48.896;13.342;2024-03-23T05:46:02;91933.94;;;8.12;75.72
39613;BME280;25303;48.896;13.342;2024-03-23T05:56:05;91921.03;;;8.37;75.51
39613;BME280;25303;48.896;13.342;2024-03-23T06:06:09;91920.91;;;8.78;74.76
39613;BME280;25303;48.896;13.342;2024-03-23T06:16:12;91915.56;;;8.88;74.18
39613;BME280;25303;48.896;13.342;2024-03-23T06:26:15;91909.47;;;9.12;73.38
39613;BME280;25303;48.896;13.342;2024-03-23T06:36:18;91895.44;;;9.23;72.94
39613;BME280;25303;48.896;13.342;2024-03-23T06:46:22;91885.31;;;9.22;71.99
39613;BME280;25303;48.896;13.342;2024-03-23T06:56:24;91894.78;;;9.21;72.11
39613;BME280;25303;48.896;13.342;2024-03-23T07:06:27;91868.59;;;9.26;73.63
39613;BME280;25303;48.896;13.342;2024-03-23T07:16:29;91827.75;;;9.84;73.92
39613;BME280;25303;48.896;13.342;2024-03-23T07:26:32;91811.66;;;10.27;71.30
39613;BME280;25303;48.896;13.342;2024-03-23T07:36:34;91811.63;;;10.57;70.84
39613;BME280;25303;48.896;13.342;2024-03-23T07:46:38;91787.59;;;11.15;70.09
39613;BME280;25303;48.896;13.342;2024-03-23T07:56:40;91777.91;;;11.88;67.90
39613;BME280;25303;48.896;13.342;2024-03-23T08:06:43;91774.81;;;12.41;66.26
39613;BME280;25303;48.896;13.342;2024-03-23T08:16:45;91771.69;;;12.79;65.32
39613;BME280;25303;48.896;13.342;2024-03-23T08:26:50;91753.81;;;12.71;63.49
39613;BME280;25303;48.896;13.342;2024-03-23T08:36:52;91731.81;;;12.13;63.60
39613;BME280;25303;48.896;13.342;2024-03-23T08:46:57;91746.78;;;11.82;64.67
39613;BME280;25303;48.896;13.342;2024-03-23T08:56:59;91777.25;;;11.44;65.25
39613;BME280;25303;48.896;13.342;2024-03-23T09:07:03;91797.97;;;11.00;66.96
39613;BME280;25303;48.896;13.342;2024-03-23T09:17:05;91815.59;;;10.60;67.74
39613;BME280;25303;48.896;13.342;2024-03-23T09:27:10;91859.63;;;10.20;70.33
39613;BME280;25303;48.896;13.342;2024-03-23T09:37:12;91905.69;;;9.62;70.88
39613;BME280;25303;48.896;13.342;2024-03-23T09:47:15;91915.44;;;9.05;70.35
39613;BME280;25303;48.896;13.342;2024-03-23T09:57:18;91892.38;;;8.33;71.77
39613;BME280;25303;48.896;13.342;2024-03-23T10:07:21;91873.25;;;8.44;70.92
39613;BME280;25303;48.896;13.342;2024-03-23T10:17:24;91897.44;;;8.58;71.88
39613;BME280;25303;48.896;13.342;2024-03-23T10:27:27;91925.22;;;8.78;71.88
39613;BME280;25303;48.896;13.342;2024-03-23T10:37:29;91937.66;;;8.66;71.83
39613;BME280;25303;48.896;13.342;2024-03-23T10:47:35;91932.00;;;8.71;71.95
39613;BME280;25303;48.896;13.342;2024-03-23T10:57:41;91939.53;;;8.72;71.95
39613;BME280;25303;48.896;13.342;2024-03-23T11:07:51;91932.63;;;8.73;71.80
39613;BME280;25303;48.896;13.342;2024-03-23T11:18:03;91920.78;;;8.72;72.18
39613;BME280;25303;48.896;13.342;2024-03-23T11:28:11;91931.13;;;8.55;72.43
39613;BME280;25303;48.896;13.342;2024-03-23T11:38:14;91962.94;;;8.21;73.80
39613;BME280;25303;48.896;13.342;2024-03-23T11:48:21;91970.47;;;8.14;75.32
39613;BME280;25303;48.896;13.342;2024-03-23T11:58:24;91949.69;;;8.01;74.89
39613;BME280;25303;48.896;13.342;2024-03-23T12:08:31;91964.84;;;8.19;73.98
39613;BME280;25303;48.896;13.342;2024-03-23T12:18:33;91985.31;;;8.44;73.96
39613;BME280;25303;48.896;13.342;2024-03-23T12:28:36;91978.56;;;8.51;72.28
39613;BME280;25303;48.896;13.342;2024-03-23T12:38:39;91977.31;;;8.30;71.45
39613;BME280;25303;48.896;13.342;2024-03-23T12:48:44;91982.50;;;8.05;70.10
39613;BME280;25303;48.896;13.342;2024-03-23T12:58:46;91988.94;;;7.85;68.48
39613;BME280;25303;48.896;13.342;2024-03-23T13:08:53;91991.00;;;7.73;65.08
39613;BME280;25303;48.896;13.342;2024-03-23T13:18:55;91976.59;;;7.72;64.15
39613;BME280;25303;48.896;13.342;2024-03-23T13:28:58;91995.03;;;7.92;65.19
39613;BME280;25303;48.896;13.342;2024-03-23T13:39:01;92029.25;;;7.25;63.81
39613;BME280;25303;48.896;13.342;2024-03-23T13:49:07;92016.31;;;7.59;62.17
39613;BME280;25303;48.896;13.342;2024-03-23T13:59:09;92052.97;;;7.43;60.18
39613;BME280;25303;48.896;13.342;2024-03-23T14:09:13;92056.78;;;7.48;60.93
39613;BME280;25303;48.896;13.342;2024-03-23T14:19:16;92064.31;;;7.33;60.45
39613;BME280;25303;48.896;13.342;2024-03-23T14:29:19;92064.00;;;7.36;60.88
39613;BME280;25303;48.896;13.342;2024-03-23T14:39:22;92055.06;;;7.48;60.03
39613;BME280;25303;48.896;13.342;2024-03-23T14:49:26;92050.72;;;7.40;59.33
39613;BME280;25303;48.896;13.342;2024-03-23T14:59:28;92071.34;;;7.39;59.37
39613;BME280;25303;48.896;13.342;2024-03-23T15:09:32;92076.13;;;7.25;58.73
39613;BME280;25303;48.896;13.342;2024-03-23T15:19:34;92063.25;;;7.01;57.42
39613;BME280;25303;48.896;13.342;2024-03-23T15:29:37;92071.34;;;6.88;55.59
39613;BME280;25303;48.896;13.342;2024-03-23T15:39:40;92056.16;;;6.86;56.77
39613;BME280;25303;48.896;13.342;2024-03-23T15:49:43;92045.47;;;6.91;57.14
39613;BME280;25303;48.896;13.342;2024-03-23T15:59:45;92044.66;;;6.90;56.49
39613;BME280;25303;48.896;13.342;2024-03-23T16:09:49;92039.97;;;6.77;56.92
39613;BME280;25303;48.896;13.342;2024-03-23T16:19:51;92033.25;;;6.76;57.10
39613;BME280;25303;48.896;13.342;2024-03-23T16:29:54;92021.56;;;6.74;56.64
39613;BME280;25303;48.896;13.342;2024-03-23T16:39:56;92002.81;;;6.65;56.53
39613;BME280;25303;48.896;13.342;2024-03-23T16:49:59;92037.91;;;6.46;57.44
39613;BME280;25303;48.896;13.342;2024-03-23T17:00:02;92053.38;;;6.36;57.98
39613;BME280;25303;48.896;13.342;2024-03-23T17:10:06;92059.00;;;6.22;57.85
39613;BME280;25303;48.896;13.342;2024-03-23T17:20:08;92067.59;;;6.13;58.00
39613;BME280;25303;48.896;13.342;2024-03-23T17:30:14;92070.72;;;5.88;58.86
39613;BME280;25303;48.896;13.342;2024-03-23T17:40:17;92087.53;;;5.73;60.00
39613;BME280;25303;48.896;13.342;2024-03-23T17:50:21;92077.66;;;5.42;62.00
39613;BME280;25303;48.896;13.342;2024-03-23T18:00:23;92082.38;;;5.19;62.80
39613;BME280;25303;48.896;13.342;2024-03-23T18:10:26;92102.13;;;5.16;62.94
39613;BME280;25303;48.896;13.342;2024-03-23T18:20:30;92129.34;;;4.98;64.24
39613;BME280;25303;48.896;13.342;2024-03-23T18:30:34;92148.16;;;4.39;64.90
39613;BME280;25303;48.896;13.342;2024-03-23T18:40:44;92159.59;;;3.96;67.18
39613;BME280;25303;48.896;13.342;2024-03-23T18:50:47;92133.31;;;3.86;67.93
39613;BME280;25303;48.896;13.342;2024-03-23T19:00:55;92127.28;;;3.67;68.59
39613;BME280;25303;48.896;13.342;2024-03-23T19:11:00;92122.09;;;3.78;68.38
39613;BME280;25303;48.896;13.342;2024-03-23T19:21:03;92133.22;;;3.87;68.07
39613;BME280;25303;48.896;13.342;2024-03-23T19:31:08;92120.84;;;3.83;68.41
39613;BME280;25303;48.896;13.342;2024-03-23T19:41:12;92136.28;;;3.81;68.41
39613;BME280;25303;48.896;13.342;2024-03-23T19:51:15;92144.03;;;3.60;68.67
39613;BME280;25303;48.896;13.342;2024-03-23T20:01:18;92133.56;;;3.43;68.77
39613;BME280;25303;48.896;13.342;2024-03-23T20:11:24;92126.03;;;3.22;69.14
39613;BME280;25303;48.896;13.342;2024-03-23T20:21:26;92124.78;;;3.07;69.76
39613;BME280;25303;48.896;13.342;2024-03-23T20:31:29;92131.03;;;2.93;69.87
39613;BME280;25303;48.896;13.342;2024-03-23T20:41:32;92124.00;;;2.75;70.92
39613;BME280;25303;48.896;13.342;2024-03-23T20:51:35;92126.13;;;2.70;71.01
39613;BME280;25303;48.896;13.342;2024-03-23T21:01:37;92118.09;;;2.65;71.03
39613;BME280;25303;48.896;13.342;2024-03-23T21:11:41;92118.97;;;2.54;71.35
39613;BME280;25303;48.896;13.342;2024-03-23T21:21:43;92108.38;;;2.49;72.01
39613;BME280;25303;48.896;13.342;2024-03-23T21:31:46;92097.69;;;2.45;72.12
39613;BME280;25303;48.896;13.342;2024-03-23T21:41:48;92097.53;;;2.47;72.26
39613;BME280;25303;48.896;13.342;2024-03-23T21:51:52;92079.31;;;2.41;71.86
39613;BME280;25303;48.896;13.342;2024-03-23T22:01:54;92075.16;;;2.40;72.26
39613;BME280;25303;48.896;13.342;2024-03-23T22:11:57;92093.00;;;2.50;72.86
39613;BME280;25303;48.896;13.342;2024-03-23T22:21:59;92090.25;;;2.63;72.64
39613;BME280;25303;48.896;13.342;2024-03-23T22:32:03;92082.53;;;2.65;73.14
39613;BME280;25303;48.896;13.342;2024-03-23T22:42:05;92087.97;;;2.60;73.18
39613;BME280;25303;48.896;13.342;2024-03-23T22:52:09;92086.19;;;2.51;73.84
39613;BME280;25303;48.896;13.342;2024-03-23T23:02:11;92078.31;;;2.54;73.74
39613;BME280;25303;48.896;13.342;2024-03-23T23:12:15;92066.50;;;2.43;74.58
39613;BME280;25303;48.896;13.342;2024-03-23T23:22:17;92050.34;;;2.44;74.53
39613;BME280;25303;48.896;13.342;2024-03-23T23:32:20;92059.91;;;2.31;75.00
39613;BME280;25303;48.896;13.342;2024-03-23T23:42:22;92057.22;;;2.32;75.33
39613;BME280;25303;48.896;13.342;2024-03-23T23:52:27;92045.47;;;2.31;75.30
